createdAt,value
2022-10-31T00:01:27.912Z,0.50
2022-10-31T00:06:31.011Z,0.35
2022-10-31T00:11:33.590Z,0.50
2022-10-31T00:16:36.229Z,0.30
2022-10-31T00:21:39.074Z,0.82
2022-10-31T00:26:41.728Z,0.43
2022-10-31T00:31:44.367Z,0.38
2022-10-31T00:36:46.972Z,0.40
2022-10-31T00:41:49.671Z,0.30
2022-10-31T00:46:52.765Z,0.20
2022-10-31T00:51:57.947Z,0.57
2022-10-31T00:57:00.581Z,0.95
2022-10-31T01:02:03.408Z,0.22
2022-10-31T01:07:06.760Z,0.40
2022-10-31T01:12:09.583Z,0.52
2022-10-31T01:17:15.529Z,0.32
2022-10-31T01:22:18.298Z,0.43
2022-10-31T01:27:21.318Z,0.32
2022-10-31T01:32:24.257Z,0.50
2022-10-31T01:37:27.441Z,0.43
2022-10-31T01:42:30.048Z,0.52
2022-10-31T01:47:44.198Z,0.43
2022-10-31T01:52:50.642Z,0.50
2022-10-31T01:57:58.544Z,0.32
2022-10-31T02:03:02.085Z,0.35
2022-10-31T02:08:26.775Z,0.50
2022-10-31T02:13:30.344Z,0.55
2022-10-31T02:18:33.690Z,0.40
2022-10-31T02:24:07.271Z,0.40
2022-10-31T02:29:50.032Z,0.50
2022-10-31T02:34:52.608Z,0.73
2022-10-31T02:40:05.842Z,0.47
2022-10-31T02:45:56.212Z,0.68
2022-10-31T02:51:03.685Z,0.50
2022-10-31T02:56:17.328Z,0.40
2022-10-31T03:01:30.429Z,0.30
2022-10-31T03:06:52.078Z,0.70
2022-10-31T03:12:03.766Z,0.70
2022-10-31T03:22:18.986Z,0.40
2022-10-31T03:27:31.258Z,0.60
2022-10-31T03:32:35.085Z,0.38
2022-10-31T03:37:40.342Z,0.55
2022-10-31T03:43:04.945Z,0.65
2022-10-31T03:48:09.196Z,0.60
2022-10-31T03:53:23.817Z,0.60
2022-10-31T03:58:41.174Z,0.70
2022-10-31T04:03:45.651Z,0.50
2022-10-31T04:09:01.694Z,0.38
2022-10-31T04:14:06.733Z,0.45
2022-10-31T04:19:13.329Z,0.60
2022-10-31T04:24:16.308Z,0.68
2022-10-31T04:29:19.659Z,1.13
2022-10-31T04:34:22.317Z,0.90
2022-10-31T04:39:27.169Z,0.43
2022-10-31T04:44:48.494Z,0.57
2022-10-31T04:49:51.683Z,0.52
2022-10-31T04:54:54.586Z,0.60
2022-10-31T05:00:23.754Z,0.52
2022-10-31T05:05:32.095Z,0.63
2022-10-31T05:10:37.770Z,0.70
2022-10-31T05:15:40.611Z,0.80
2022-10-31T05:21:01.839Z,0.80
2022-10-31T05:26:10.713Z,0.65
2022-10-31T05:31:13.702Z,0.73
2022-10-31T05:36:18.009Z,0.63
2022-10-31T05:41:34.967Z,0.68
2022-10-31T05:46:47.058Z,0.60
2022-10-31T05:52:01.789Z,0.68
2022-10-31T05:57:14.442Z,1.27
2022-10-31T06:02:17.004Z,0.80
2022-10-31T06:07:42.325Z,1.50
2022-10-31T06:12:45.003Z,1.48
2022-10-31T06:18:06.515Z,1.80
2022-10-31T06:23:12.375Z,1.25
2022-10-31T06:28:16.909Z,0.75
2022-10-31T06:33:29.693Z,0.70
2022-10-31T06:38:36.547Z,0.80
2022-10-31T06:43:41.340Z,0.52
2022-10-31T06:49:03.842Z,0.90
2022-10-31T06:54:18.587Z,0.70
2022-10-31T06:59:22.238Z,0.70
2022-10-31T07:04:53.961Z,0.70
2022-10-31T07:09:56.597Z,0.50
2022-10-31T07:15:15.214Z,0.70
2022-10-31T07:20:18.131Z,0.77
2022-10-31T07:25:20.843Z,0.45
2022-10-31T07:30:43.378Z,0.70
2022-10-31T07:35:46.298Z,0.35
2022-10-31T07:40:53.892Z,0.50
2022-10-31T07:45:56.614Z,0.60
2022-10-31T07:51:17.202Z,0.70
2022-10-31T07:56:48.982Z,0.35
2022-10-31T08:01:52.036Z,0.40
2022-10-31T08:07:06.858Z,0.70
2022-10-31T08:12:12.165Z,0.90
2022-10-31T08:17:14.886Z,0.88
2022-10-31T08:22:24.970Z,0.85
2022-10-31T08:27:28.544Z,0.60
2022-10-31T08:32:34.695Z,0.70
2022-10-31T08:38:00.981Z,0.68
2022-10-31T08:43:13.959Z,0.80
2022-10-31T08:48:18.354Z,0.80
2022-10-31T08:53:21.068Z,0.77
2022-10-31T08:58:39.120Z,0.90
2022-10-31T09:03:43.453Z,1.00
2022-10-31T09:08:46.853Z,1.40
2022-10-31T09:13:49.408Z,1.33
2022-10-31T09:19:08.689Z,1.48
2022-10-31T09:24:13.815Z,1.20
2022-10-31T09:29:18.270Z,1.00
2022-10-31T09:34:24.450Z,0.90
2022-10-31T09:39:47.268Z,0.60
2022-10-31T09:45:08.203Z,0.57
2022-10-31T09:50:24.413Z,0.60
2022-10-31T09:55:40.734Z,1.02
2022-10-31T10:00:46.107Z,0.50
2022-10-31T10:05:58.532Z,0.60
2022-10-31T10:11:38.206Z,0.60
2022-10-31T10:16:53.783Z,0.35
2022-10-31T10:22:05.428Z,0.50
2022-10-31T10:27:32.445Z,0.20
2022-10-31T10:32:50.845Z,0.25
2022-10-31T10:38:02.093Z,0.50
2022-10-31T10:43:37.062Z,0.43
2022-10-31T10:48:56.988Z,0.50
2022-10-31T10:54:15.079Z,0.60
2022-10-31T10:59:21.897Z,0.40
2022-10-31T11:04:30.145Z,0.57
2022-10-31T11:09:33.727Z,0.60
2022-10-31T11:14:52.018Z,0.43
2022-10-31T11:20:18.120Z,0.60
2022-10-31T11:25:26.409Z,1.20
2022-10-31T11:30:29.761Z,1.58
2022-10-31T11:35:32.544Z,0.50
2022-10-31T11:40:35.617Z,0.50
2022-10-31T11:45:38.206Z,0.70
2022-10-31T11:50:42.955Z,0.40
2022-10-31T11:55:47.215Z,0.40
2022-10-31T12:00:55.280Z,0.40
2022-10-31T12:06:15.857Z,0.40
2022-10-31T12:11:30.495Z,0.65
2022-10-31T12:16:42.046Z,0.55
2022-10-31T12:22:21.043Z,0.60
2022-10-31T12:27:45.173Z,0.90
2022-10-31T12:33:02.907Z,0.70
2022-10-31T12:38:37.707Z,0.90
2022-10-31T12:43:42.895Z,0.93
2022-10-31T12:48:55.545Z,0.80
2022-10-31T12:54:16.001Z,0.90
2022-10-31T12:59:43.008Z,0.85
2022-10-31T13:04:45.455Z,0.80
2022-10-31T13:09:59.769Z,0.70
2022-10-31T13:15:14.236Z,0.95
2022-10-31T13:20:45.224Z,0.90
2022-10-31T13:25:52.159Z,0.77
2022-10-31T13:30:55.390Z,0.85
2022-10-31T13:36:09.902Z,0.60
2022-10-31T13:41:28.208Z,0.70
2022-10-31T13:46:34.016Z,0.70
2022-10-31T13:51:36.898Z,1.50
2022-10-31T13:56:41.200Z,0.70
2022-10-31T14:01:50.017Z,0.80
2022-10-31T14:07:12.150Z,0.80
2022-10-31T14:23:36.395Z,0.73
2022-10-31T14:28:39.001Z,0.60
2022-10-31T14:33:43.755Z,0.80
2022-10-31T14:38:58.515Z,0.70
2022-10-31T14:44:12.377Z,1.02
2022-10-31T14:49:24.717Z,0.90
2022-10-31T14:54:35.489Z,1.10
2022-10-31T14:59:42.319Z,1.23
2022-10-31T15:04:47.246Z,1.30
2022-10-31T15:10:00.871Z,1.00
2022-10-31T15:15:23.286Z,0.90
2022-10-31T15:20:30.496Z,1.00
2022-10-31T15:25:36.150Z,1.00
2022-10-31T15:30:40.693Z,1.35
2022-10-31T15:35:56.921Z,1.48
2022-10-31T15:41:06.227Z,1.00
2022-10-31T15:46:11.096Z,1.23
2022-10-31T15:51:13.879Z,1.20
2022-10-31T15:56:29.089Z,1.33
2022-10-31T16:01:33.968Z,1.00
2022-10-31T16:06:40.091Z,1.33
2022-10-31T16:11:44.470Z,0.85
2022-10-31T16:16:54.979Z,0.57
2022-10-31T16:22:04.751Z,0.95
2022-10-31T16:27:30.037Z,1.08
2022-10-31T16:32:55.315Z,0.90
2022-10-31T16:37:57.891Z,0.90
2022-10-31T16:43:02.383Z,1.38
2022-10-31T16:48:10.935Z,0.73
2022-10-31T16:53:16.663Z,0.95
2022-10-31T16:58:35.022Z,0.70
2022-10-31T17:03:41.043Z,0.73
2022-10-31T17:08:43.584Z,0.75
2022-10-31T17:13:46.391Z,0.85
2022-10-31T17:18:49.047Z,1.00
2022-10-31T17:23:51.752Z,0.77
2022-10-31T17:28:54.297Z,0.70
2022-10-31T17:34:02.145Z,0.70
2022-10-31T17:39:07.686Z,1.08
2022-10-31T17:44:13.587Z,0.73
2022-10-31T17:49:16.173Z,0.82
2022-10-31T17:54:22.809Z,0.70
2022-10-31T17:59:26.639Z,0.80
2022-10-31T18:04:29.635Z,0.80
2022-10-31T18:09:32.250Z,0.70
2022-10-31T18:14:34.945Z,0.85
2022-10-31T18:19:37.579Z,0.90
2022-10-31T18:24:40.251Z,0.80
2022-10-31T18:29:42.807Z,0.80
2022-10-31T18:34:45.391Z,1.08
2022-10-31T18:39:48.098Z,0.70
2022-10-31T18:44:50.732Z,0.80
2022-10-31T18:49:53.316Z,0.95
2022-10-31T18:54:55.956Z,0.90
2022-10-31T18:59:58.651Z,0.80
2022-10-31T19:05:01.194Z,0.80
2022-10-31T19:10:05.785Z,0.95
2022-10-31T19:15:08.753Z,0.88
2022-10-31T19:20:11.954Z,1.08
2022-10-31T19:30:34.560Z,1.00
2022-10-31T19:35:37.041Z,1.38
2022-10-31T19:40:42.309Z,0.70
2022-10-31T19:45:57.986Z,0.90
2022-10-31T19:51:02.531Z,0.70
2022-10-31T19:56:10.800Z,0.88
2022-10-31T20:01:42.415Z,0.90
2022-10-31T20:06:45.303Z,0.88
2022-10-31T20:11:48.611Z,0.70
2022-10-31T20:16:51.166Z,0.70
2022-10-31T20:21:54.354Z,0.90
2022-10-31T20:26:57.050Z,0.60
2022-10-31T20:31:59.656Z,0.77
2022-10-31T20:37:02.254Z,0.73
2022-10-31T20:42:05.686Z,0.80
2022-10-31T20:47:08.244Z,0.85
2022-10-31T20:52:10.807Z,1.42
2022-10-31T20:57:14.677Z,1.45
2022-10-31T21:02:17.245Z,1.33
2022-10-31T21:07:19.964Z,1.00
2022-10-31T21:12:23.304Z,0.73
2022-10-31T21:17:25.923Z,0.80
2022-10-31T21:22:28.918Z,1.20
2022-10-31T21:27:31.705Z,1.00
2022-10-31T21:32:34.287Z,0.60
2022-10-31T21:37:36.837Z,0.40
2022-10-31T21:42:39.367Z,0.65
2022-10-31T21:47:41.871Z,0.60
2022-10-31T21:52:44.587Z,0.60
2022-10-31T21:57:47.212Z,0.52
2022-10-31T22:02:49.768Z,0.65
2022-10-31T22:07:52.338Z,0.50
2022-10-31T22:12:54.945Z,0.47
2022-10-31T22:17:58.216Z,1.08
2022-10-31T22:23:00.951Z,0.75
2022-10-31T22:28:07.984Z,0.60
2022-10-31T22:33:10.488Z,0.55
2022-10-31T22:38:13.239Z,0.40
2022-10-31T22:43:15.716Z,0.50
2022-10-31T22:48:18.289Z,0.60
2022-10-31T22:53:20.833Z,1.10
2022-10-31T22:58:23.415Z,0.55
2022-10-31T23:03:26.301Z,0.50
2022-10-31T23:08:30.091Z,0.50
2022-10-31T23:13:51.190Z,0.60
2022-10-31T23:18:54.423Z,0.63
2022-10-31T23:23:57.821Z,0.40
2022-10-31T23:29:00.391Z,0.50
2022-10-31T23:34:02.898Z,0.55
2022-10-31T23:39:05.482Z,0.63
2022-10-31T23:44:08.104Z,0.80
2022-10-31T23:49:10.746Z,0.57
2022-10-31T23:54:13.320Z,0.68
2022-10-31T23:59:15.923Z,0.70
